sensor_id;sensor_type;location;lat;lon;timestamp;pressure;altitude;pressure_sealevel;temperature;humidity
50592;BME280;36548;50.506;30.834;2023-05-24T00:00:25;99747.94;;;19.41;53.25
50592;BME280;36548;50.506;30.834;2023-05-24T00:01:34;99751.16;;;19.29;53.41
50592;BME280;36548;50.506;30.834;2023-05-24T00:02:52;99750.83;;;19.40;53.45
50592;BME280;36548;50.506;30.834;2023-05-24T00:04:03;99741.80;;;19.23;53.65
50592;BME280;36548;50.506;30.834;2023-05-24T00:05:18;99742.84;;;19.38;53.46
50592;BME280;36548;50.506;30.834;2023-05-24T00:06:27;99741.81;;;19.31;53.38
50592;BME280;36548;50.506;30.834;2023-05-24T00:07:37;99735.69;;;19.37;53.17
50592;BME280;36548;50.506;30.834;2023-05-24T00:08:52;99738.94;;;19.49;53.10
50592;BME280;36548;50.506;30.834;2023-05-24T00:10:03;99740.78;;;19.40;53.14
50592;BME280;36548;50.506;30.834;2023-05-24T00:11:20;99738.94;;;19.57;53.04
50592;BME280;36548;50.506;30.834;2023-05-24T00:12:31;99747.27;;;19.48;52.83
50592;BME280;36548;50.506;30.834;2023-05-24T00:13:48;99738.24;;;19.55;52.98
50592;BME280;36548;50.506;30.834;2023-05-24T00:14:57;99736.70;;;19.45;53.04
50592;BME280;36548;50.506;30.834;2023-05-24T00:16:13;99737.23;;;19.56;53.01
50592;BME280;36548;50.506;30.834;2023-05-24T00:17:24;99754.91;;;19.44;53.08
50592;BME280;36548;50.506;30.834;2023-05-24T00:18:39;99745.05;;;19.51;53.08
50592;BME280;36548;50.506;30.834;2023-05-24T00:19:49;99746.08;;;19.42;53.14
50592;BME280;36548;50.506;30.834;2023-05-24T00:21:07;99745.91;;;19.44;53.48
50592;BME280;36548;50.506;30.834;2023-05-24T00:22:15;99745.91;;;19.35;53.46
50592;BME280;36548;50.506;30.834;2023-05-24T00:23:30;99742.84;;;19.47;53.47
50592;BME280;36548;50.506;30.834;2023-05-24T00:24:40;99748.80;;;19.34;53.64
50592;BME280;36548;50.506;30.834;2023-05-24T00:25:53;99747.75;;;19.35;53.57
50592;BME280;36548;50.506;30.834;2023-05-24T00:27:08;99748.11;;;19.48;53.57
50592;BME280;36548;50.506;30.834;2023-05-24T00:28:19;99744.86;;;19.36;53.60
50592;BME280;36548;50.506;30.834;2023-05-24T00:29:35;99743.19;;;19.44;53.69
50592;BME280;36548;50.506;30.834;2023-05-24T00:30:45;99749.29;;;19.37;53.67
50592;BME280;36548;50.506;30.834;2023-05-24T00:32:01;99745.39;;;19.48;53.75
50592;BME280;36548;50.506;30.834;2023-05-24T00:33:11;99741.13;;;19.37;53.68
50592;BME280;36548;50.506;30.834;2023-05-24T00:34:46;99745.73;;;19.45;53.81
50592;BME280;36548;50.506;30.834;2023-05-24T00:35:56;99746.21;;;19.32;53.87
50592;BME280;36548;50.506;30.834;2023-05-24T00:37:06;99747.26;;;19.31;53.94
50592;BME280;36548;50.506;30.834;2023-05-24T00:38:15;99753.88;;;19.29;54.02
50592;BME280;36548;50.506;30.834;2023-05-24T00:39:31;99741.83;;;19.39;53.99
50592;BME280;36548;50.506;30.834;2023-05-24T00:40:41;99741.98;;;19.30;53.96
50592;BME280;36548;50.506;30.834;2023-05-24T00:41:51;99750.81;;;19.32;54.04
50592;BME280;36548;50.506;30.834;2023-05-24T00:43:07;99748.45;;;19.45;53.97
50592;BME280;36548;50.506;30.834;2023-05-24T00:44:15;99753.02;;;19.36;53.86
50592;BME280;36548;50.506;30.834;2023-05-24T00:45:25;99752.71;;;19.39;53.81
50592;BME280;36548;50.506;30.834;2023-05-24T00:46:40;99754.41;;;19.57;53.72
50592;BME280;36548;50.506;30.834;2023-05-24T00:47:56;99756.95;;;19.50;53.39
50592;BME280;36548;50.506;30.834;2023-05-24T00:49:06;99763.92;;;19.53;53.23
50592;BME280;36548;50.506;30.834;2023-05-24T00:50:22;99755.10;;;19.67;53.17
50592;BME280;36548;50.506;30.834;2023-05-24T00:51:31;99756.28;;;19.48;53.29
50592;BME280;36548;50.506;30.834;2023-05-24T00:52:49;99748.64;;;19.52;53.58
50592;BME280;36548;50.506;30.834;2023-05-24T00:53:59;99755.08;;;19.34;53.90
50592;BME280;36548;50.506;30.834;2023-05-24T00:55:09;99756.43;;;19.30;54.00
50592;BME280;36548;50.506;30.834;2023-05-24T00:56:26;99756.80;;;19.44;53.98
50592;BME280;36548;50.506;30.834;2023-05-24T00:57:36;99758.14;;;19.31;54.04
50592;BME280;36548;50.506;30.834;2023-05-24T00:58:52;99761.20;;;19.45;53.94
50592;BME280;36548;50.506;30.834;2023-05-24T01:00:05;99764.08;;;19.35;53.84
50592;BME280;36548;50.506;30.834;2023-05-24T01:01:22;99761.02;;;19.46;53.80
50592;BME280;36548;50.506;30.834;2023-05-24T01:02:36;99763.07;;;19.36;53.83
50592;BME280;36548;50.506;30.834;2023-05-24T01:03:52;99761.02;;;19.46;53.76
50592;BME280;36548;50.506;30.834;2023-05-24T01:05:01;99767.66;;;19.27;53.97
50592;BME280;36548;50.506;30.834;2023-05-24T01:06:17;99755.92;;;19.35;54.05
50592;BME280;36548;50.506;30.834;2023-05-24T01:13:03;99754.22;;;19.25;54.60
50592;BME280;36548;50.506;30.834;2023-05-24T01:15:40;99746.56;;;19.37;54.45
50592;BME280;36548;50.506;30.834;2023-05-24T01:18:34;99759.34;;;19.37;54.10
50592;BME280;36548;50.506;30.834;2023-05-24T01:19:56;99764.75;;;19.20;54.29
50592;BME280;36548;50.506;30.834;2023-05-24T01:24:31;99768.00;;;19.24;54.80
50592;BME280;36548;50.506;30.834;2023-05-24T01:27:23;99761.67;;;19.15;55.01
50592;BME280;36548;50.506;30.834;2023-05-24T01:28:33;99764.85;;;18.94;55.31
50592;BME280;36548;50.506;30.834;2023-05-24T01:29:43;99766.56;;;18.95;55.35
50592;BME280;36548;50.506;30.834;2023-05-24T01:30:59;99766.89;;;19.00;55.56
50592;BME280;36548;50.506;30.834;2023-05-24T01:32:09;99766.50;;;18.87;55.52
50592;BME280;36548;50.506;30.834;2023-05-24T01:33:25;99760.95;;;18.97;55.78
50592;BME280;36548;50.506;30.834;2023-05-24T01:34:37;99761.06;;;18.87;55.79
50592;BME280;36548;50.506;30.834;2023-05-24T01:35:53;99769.14;;;19.05;55.74
50592;BME280;36548;50.506;30.834;2023-05-24T01:37:02;99767.06;;;18.99;55.55
50592;BME280;36548;50.506;30.834;2023-05-24T01:38:18;99760.66;;;19.16;55.34
50592;BME280;36548;50.506;30.834;2023-05-24T01:39:28;99762.35;;;19.09;55.13
50592;BME280;36548;50.506;30.834;2023-05-24T01:40:46;99758.61;;;19.18;55.00
50592;BME280;36548;50.506;30.834;2023-05-24T01:42:25;99764.87;;;19.02;55.38
50592;BME280;36548;50.506;30.834;2023-05-24T01:43:38;99754.84;;;19.03;55.48
50592;BME280;36548;50.506;30.834;2023-05-24T01:45:02;99755.56;;;19.13;55.54
50592;BME280;36548;50.506;30.834;2023-05-24T01:49:33;99759.61;;;19.01;56.04
50592;BME280;36548;50.506;30.834;2023-05-24T01:52:15;99769.31;;;19.03;56.06
50592;BME280;36548;50.506;30.834;2023-05-24T01:53:28;99769.11;;;18.97;56.04
50592;BME280;36548;50.506;30.834;2023-05-24T01:54:44;99764.56;;;19.14;55.63
50592;BME280;36548;50.506;30.834;2023-05-24T01:55:56;99770.31;;;19.02;55.61
50592;BME280;36548;50.506;30.834;2023-05-24T01:57:13;99763.19;;;19.10;55.60
50592;BME280;36548;50.506;30.834;2023-05-24T01:58:24;99772.00;;;18.95;55.66
50592;BME280;36548;50.506;30.834;2023-05-24T01:59:35;99771.13;;;18.95;55.79
50592;BME280;36548;50.506;30.834;2023-05-24T02:00:53;99768.44;;;19.03;55.93
50592;BME280;36548;50.506;30.834;2023-05-24T02:02:04;99777.78;;;18.92;55.93
50592;BME280;36548;50.506;30.834;2023-05-24T02:03:20;99771.50;;;19.00;55.91
50592;BME280;36548;50.506;30.834;2023-05-24T02:04:30;99776.41;;;18.88;55.92
50592;BME280;36548;50.506;30.834;2023-05-24T02:05:40;99776.41;;;18.88;55.93
50592;BME280;36548;50.506;30.834;2023-05-24T02:06:56;99767.42;;;19.04;55.92
50592;BME280;36548;50.506;30.834;2023-05-24T02:08:05;99765.02;;;18.93;55.74
50592;BME280;36548;50.506;30.834;2023-05-24T02:09:16;99766.03;;;18.91;55.80
50592;BME280;36548;50.506;30.834;2023-05-24T02:10:25;99767.74;;;18.93;55.87
50592;BME280;36548;50.506;30.834;2023-05-24T02:11:47;99761.65;;;19.07;56.00
50592;BME280;36548;50.506;30.834;2023-05-24T02:12:57;99771.16;;;19.03;56.03
50592;BME280;36548;50.506;30.834;2023-05-24T02:14:33;99769.85;;;19.23;55.60
50592;BME280;36548;50.506;30.834;2023-05-24T02:15:41;99772.21;;;19.18;55.47
50592;BME280;36548;50.506;30.834;2023-05-24T02:16:58;99769.52;;;19.35;55.31
50592;BME280;36548;50.506;30.834;2023-05-24T02:18:09;99776.48;;;19.29;55.17
50592;BME280;36548;50.506;30.834;2023-05-24T02:19:25;99771.08;;;19.46;54.91
50592;BME280;36548;50.506;30.834;2023-05-24T02:20:35;99766.49;;;19.38;54.78
50592;BME280;36548;50.506;30.834;2023-05-24T02:21:51;99767.17;;;19.48;54.55
50592;BME280;36548;50.506;30.834;2023-05-24T02:23:02;99764.78;;;19.37;54.66
50592;BME280;36548;50.506;30.834;2023-05-24T02:24:17;99764.97;;;19.44;54.62
50592;BME280;36548;50.506;30.834;2023-05-24T02:25:26;99776.66;;;19.28;54.64
50592;BME280;36548;50.506;30.834;2023-05-24T02:26:42;99775.14;;;19.33;55.12
50592;BME280;36548;50.506;30.834;2023-05-24T02:27:52;99781.44;;;19.25;55.22
50592;BME280;36548;50.506;30.834;2023-05-24T02:29:08;99774.48;;;19.39;55.05
50592;BME280;36548;50.506;30.834;2023-05-24T02:30:18;99786.02;;;19.33;55.07
50592;BME280;36548;50.506;30.834;2023-05-24T02:31:34;99786.91;;;19.42;54.54
50592;BME280;36548;50.506;30.834;2023-05-24T02:32:44;99788.55;;;19.27;54.64
50592;BME280;36548;50.506;30.834;2023-05-24T02:33:55;99790.44;;;19.26;54.92
50592;BME280;36548;50.506;30.834;2023-05-24T02:35:05;99788.23;;;19.21;54.74
50592;BME280;36548;50.506;30.834;2023-05-24T02:36:16;99787.34;;;19.13;55.09
50592;BME280;36548;50.506;30.834;2023-05-24T02:37:32;99784.80;;;19.19;55.36
50592;BME280;36548;50.506;30.834;2023-05-24T02:38:41;99787.00;;;19.07;55.56
50592;BME280;36548;50.506;30.834;2023-05-24T02:39:57;99776.64;;;19.19;55.55
50592;BME280;36548;50.506;30.834;2023-05-24T02:41:07;99781.73;;;19.06;55.52
50592;BME280;36548;50.506;30.834;2023-05-24T02:42:23;99787.34;;;19.13;55.65
50592;BME280;36548;50.506;30.834;2023-05-24T02:43:33;99790.70;;;18.98;55.59
50592;BME280;36548;50.506;30.834;2023-05-24T02:44:48;99788.18;;;19.05;55.81
50592;BME280;36548;50.506;30.834;2023-05-24T02:45:59;99790.34;;;18.93;55.89
50592;BME280;36548;50.506;30.834;2023-05-24T02:47:15;99787.17;;;19.06;55.90
50592;BME280;36548;50.506;30.834;2023-05-24T02:48:24;99791.71;;;18.97;55.69
50592;BME280;36548;50.506;30.834;2023-05-24T02:49:40;99792.92;;;19.03;55.81
50592;BME280;36548;50.506;30.834;2023-05-24T02:50:50;99790.50;;;18.91;56.10
50592;BME280;36548;50.506;30.834;2023-05-24T02:52:00;99786.24;;;18.89;55.92
50592;BME280;36548;50.506;30.834;2023-05-24T02:53:16;99782.55;;;18.98;56.10
50592;BME280;36548;50.506;30.834;2023-05-24T02:54:25;99786.88;;;18.83;56.30
50592;BME280;36548;50.506;30.834;2023-05-24T02:55:34;99787.39;;;18.86;56.57
50592;BME280;36548;50.506;30.834;2023-05-24T02:56:52;99783.08;;;19.02;56.37
50592;BME280;36548;50.506;30.834;2023-05-24T02:58:04;99789.33;;;18.94;56.30
50592;BME280;36548;50.506;30.834;2023-05-24T02:59:21;99784.28;;;19.07;56.24
50592;BME280;36548;50.506;30.834;2023-05-24T03:00:31;99787.64;;;19.01;56.28
50592;BME280;36548;50.506;30.834;2023-05-24T03:01:46;99787.70;;;19.18;56.14
50592;BME280;36548;50.506;30.834;2023-05-24T03:02:56;99789.05;;;19.14;55.94
50592;BME280;36548;50.506;30.834;2023-05-24T03:04:15;99782.27;;;19.26;55.51
50592;BME280;36548;50.506;30.834;2023-05-24T03:05:23;99784.98;;;19.18;55.65
50592;BME280;36548;50.506;30.834;2023-05-24T03:06:33;99789.23;;;19.20;55.45
50592;BME280;36548;50.506;30.834;2023-05-24T03:07:48;99778.73;;;19.34;55.44
50592;BME280;36548;50.506;30.834;2023-05-24T03:08:57;99787.05;;;19.24;55.38
50592;BME280;36548;50.506;30.834;2023-05-24T03:10:13;99784.50;;;19.39;55.31
50592;BME280;36548;50.506;30.834;2023-05-24T03:11:24;99782.63;;;19.31;55.36
50592;BME280;36548;50.506;30.834;2023-05-24T03:12:39;99775.51;;;19.47;55.08
50592;BME280;36548;50.506;30.834;2023-05-24T03:13:51;99787.39;;;19.37;55.07
50592;BME280;36548;50.506;30.834;2023-05-24T03:15:02;99783.66;;;19.38;54.92
50592;BME280;36548;50.506;30.834;2023-05-24T03:16:17;99781.30;;;19.52;54.93
50592;BME280;36548;50.506;30.834;2023-05-24T03:17:29;99788.76;;;19.41;54.93
50592;BME280;36548;50.506;30.834;2023-05-24T03:18:45;99773.28;;;19.50;54.89
50592;BME280;36548;50.506;30.834;2023-05-24T03:19:55;99792.49;;;19.40;55.05
50592;BME280;36548;50.506;30.834;2023-05-24T03:21:11;99781.62;;;19.49;55.14
50592;BME280;36548;50.506;30.834;2023-05-24T03:22:21;99791.66;;;19.40;55.33
50592;BME280;36548;50.506;30.834;2023-05-24T03:23:37;99776.17;;;19.49;55.13
50592;BME280;36548;50.506;30.834;2023-05-24T03:24:47;99791.82;;;19.38;55.07
50592;BME280;36548;50.506;30.834;2023-05-24T03:25:57;99789.10;;;19.38;55.38
50592;BME280;36548;50.506;30.834;2023-05-24T03:27:08;99789.63;;;19.42;55.33
50592;BME280;36548;50.506;30.834;2023-05-24T03:28:23;99785.03;;;19.51;54.91
50592;BME280;36548;50.506;30.834;2023-05-24T03:29:34;99789.94;;;19.39;55.10
50592;BME280;36548;50.506;30.834;2023-05-24T03:30:49;99790.66;;;19.49;55.35
50592;BME280;36548;50.506;30.834;2023-05-24T03:31:59;99789.44;;;19.35;54.95
50592;BME280;36548;50.506;30.834;2023-05-24T03:33:15;99785.02;;;19.42;55.37
50592;BME280;36548;50.506;30.834;2023-05-24T03:34:25;99787.91;;;19.33;55.22
50592;BME280;36548;50.506;30.834;2023-05-24T03:35:40;99784.02;;;19.44;55.56
50592;BME280;36548;50.506;30.834;2023-05-24T03:36:51;99785.85;;;19.35;55.68
50592;BME280;36548;50.506;30.834;2023-05-24T03:38:01;99791.82;;;19.38;55.53
50592;BME280;36548;50.506;30.834;2023-05-24T03:39:10;99792.00;;;19.37;55.59
50592;BME280;36548;50.506;30.834;2023-05-24T03:40:27;99788.11;;;19.48;55.72
50592;BME280;36548;50.506;30.834;2023-05-24T03:41:40;99796.26;;;19.39;55.61
50592;BME280;36548;50.506;30.834;2023-05-24T03:42:51;99795.91;;;19.42;55.60
50592;BME280;36548;50.506;30.834;2023-05-24T03:44:02;99790.83;;;19.48;55.50
50592;BME280;36548;50.506;30.834;2023-05-24T03:45:17;99791.16;;;19.61;55.15
50592;BME280;36548;50.506;30.834;2023-05-24T03:46:27;99790.66;;;19.49;55.26
50592;BME280;36548;50.506;30.834;2023-05-24T03:47:42;99783.86;;;19.62;55.29
50592;BME280;36548;50.506;30.834;2023-05-24T03:48:56;99797.47;;;19.53;55.27
50592;BME280;36548;50.506;30.834;2023-05-24T03:50:11;99792.17;;;19.68;55.27
50592;BME280;36548;50.506;30.834;2023-05-24T03:51:22;99796.60;;;19.61;55.08
50592;BME280;36548;50.506;30.834;2023-05-24T03:52:40;99792.18;;;19.76;55.27
50592;BME280;36548;50.506;30.834;2023-05-24T03:53:49;99796.44;;;19.71;55.20
50592;BME280;36548;50.506;30.834;2023-05-24T03:55:05;99791.90;;;19.80;54.63
50592;BME280;36548;50.506;30.834;2023-05-24T03:56:14;99798.14;;;19.64;54.75
50592;BME280;36548;50.506;30.834;2023-05-24T03:57:29;99793.22;;;19.67;55.17
50592;BME280;36548;50.506;30.834;2023-05-24T03:58:39;99785.70;;;19.53;55.43
50592;BME280;36548;50.506;30.834;2023-05-24T03:59:54;99793.88;;;19.61;55.70
50592;BME280;36548;50.506;30.834;2023-05-24T04:01:04;99796.41;;;19.46;55.81
50592;BME280;36548;50.506;30.834;2023-05-24T04:02:20;99795.23;;;19.57;56.12
50592;BME280;36548;50.506;30.834;2023-05-24T04:03:30;99799.30;;;19.45;56.11
50592;BME280;36548;50.506;30.834;2023-05-24T04:04:41;99801.85;;;19.46;56.19
50592;BME280;36548;50.506;30.834;2023-05-24T04:05:52;99798.30;;;19.46;56.10
50592;BME280;36548;50.506;30.834;2023-05-24T04:07:07;99794.40;;;19.56;56.27
50592;BME280;36548;50.506;30.834;2023-05-24T04:08:19;99810.02;;;19.46;56.30
50592;BME280;36548;50.506;30.834;2023-05-24T04:09:28;99804.44;;;19.48;56.44
50592;BME280;36548;50.506;30.834;2023-05-24T04:10:38;99806.64;;;19.52;56.74
50592;BME280;36548;50.506;30.834;2023-05-24T04:11:53;99802.23;;;19.68;56.25
50592;BME280;36548;50.506;30.834;2023-05-24T04:13:02;99797.13;;;19.56;56.19
50592;BME280;36548;50.506;30.834;2023-05-24T04:14:19;99797.97;;;19.65;56.30
50592;BME280;36548;50.506;30.834;2023-05-24T04:15:31;99808.36;;;19.53;56.38
50592;BME280;36548;50.506;30.834;2023-05-24T04:16:46;99803.41;;;19.65;56.22
50592;BME280;36548;50.506;30.834;2023-05-24T04:17:56;99804.45;;;19.56;56.09
50592;BME280;36548;50.506;30.834;2023-05-24T04:19:06;99801.86;;;19.54;56.17
50592;BME280;36548;50.506;30.834;2023-05-24T04:20:17;99796.42;;;19.54;56.30
50592;BME280;36548;50.506;30.834;2023-05-24T04:21:33;99790.33;;;19.69;56.51
50592;BME280;36548;50.506;30.834;2023-05-24T04:22:47;99803.09;;;19.60;56.35
50592;BME280;36548;50.506;30.834;2023-05-24T04:23:58;99805.95;;;19.58;56.43
50592;BME280;36548;50.506;30.834;2023-05-24T04:25:15;99801.22;;;19.69;56.64
50592;BME280;36548;50.506;30.834;2023-05-24T04:26:25;99807.49;;;19.61;56.69
50592;BME280;36548;50.506;30.834;2023-05-24T04:27:34;99815.84;;;19.68;56.88
50592;BME280;36548;50.506;30.834;2023-05-24T04:28:50;99809.25;;;19.87;56.56
50592;BME280;36548;50.506;30.834;2023-05-24T04:29:59;99812.33;;;19.84;56.44
50592;BME280;36548;50.506;30.834;2023-05-24T04:31:10;99813.16;;;19.92;56.03
50592;BME280;36548;50.506;30.834;2023-05-24T04:32:26;99801.39;;;20.08;55.80
50592;BME280;36548;50.506;30.834;2023-05-24T04:33:38;99812.30;;;20.00;55.63
50592;BME280;36548;50.506;30.834;2023-05-24T04:34:53;99803.09;;;20.09;55.38
50592;BME280;36548;50.506;30.834;2023-05-24T04:36:04;99814.53;;;19.97;55.21
50592;BME280;36548;50.506;30.834;2023-05-24T04:37:20;99808.90;;;20.06;55.40
50592;BME280;36548;50.506;30.834;2023-05-24T04:38:29;99812.64;;;19.97;55.34
50592;BME280;36548;50.506;30.834;2023-05-24T04:39:47;99806.84;;;20.08;55.14
50592;BME280;36548;50.506;30.834;2023-05-24T04:40:57;99818.78;;;19.99;55.24
50592;BME280;36548;50.506;30.834;2023-05-24T04:42:07;99819.45;;;20.01;55.27
50592;BME280;36548;50.506;30.834;2023-05-24T04:43:42;99803.61;;;20.21;55.28
50592;BME280;36548;50.506;30.834;2023-05-24T04:44:50;99820.63;;;20.15;54.77
50592;BME280;36548;50.506;30.834;2023-05-24T04:46:00;99829.50;;;20.17;54.73
50592;BME280;36548;50.506;30.834;2023-05-24T04:47:11;99824.72;;;20.19;54.71
50592;BME280;36548;50.506;30.834;2023-05-24T04:48:22;99823.00;;;20.18;54.84
50592;BME280;36548;50.506;30.834;2023-05-24T04:49:38;99824.70;;;20.27;55.34
50592;BME280;36548;50.506;30.834;2023-05-24T04:50:54;99832.89;;;20.19;55.39
50592;BME280;36548;50.506;30.834;2023-05-24T04:52:04;99832.22;;;20.25;55.28
50592;BME280;36548;50.506;30.834;2023-05-24T04:53:40;99823.66;;;20.45;55.13
50592;BME280;36548;50.506;30.834;2023-05-24T04:54:49;99820.42;;;20.41;55.12
50592;BME280;36548;50.506;30.834;2023-05-24T04:56:05;99822.09;;;20.59;55.15
50592;BME280;36548;50.506;30.834;2023-05-24T04:57:16;99829.09;;;20.53;54.77
50592;BME280;36548;50.506;30.834;2023-05-24T04:58:31;99826.51;;;20.68;54.63
50592;BME280;36548;50.506;30.834;2023-05-24T04:59:40;99827.37;;;20.60;54.47
50592;BME280;36548;50.506;30.834;2023-05-24T05:00:56;99823.94;;;20.75;54.43
50592;BME280;36548;50.506;30.834;2023-05-24T05:02:05;99830.44;;;20.66;54.28
50592;BME280;36548;50.506;30.834;2023-05-24T05:03:20;99827.53;;;20.75;54.19
50592;BME280;36548;50.506;30.834;2023-05-24T05:04:29;99827.70;;;20.66;54.31
50592;BME280;36548;50.506;30.834;2023-05-24T05:05:45;99832.12;;;20.75;54.26
50592;BME280;36548;50.506;30.834;2023-05-24T05:06:55;99832.48;;;20.72;54.56
50592;BME280;36548;50.506;30.834;2023-05-24T05:08:10;99826.06;;;20.96;54.46
50592;BME280;36548;50.506;30.834;2023-05-24T05:09:19;99830.53;;;20.89;54.33
50592;BME280;36548;50.506;30.834;2023-05-24T05:10:35;99828.42;;;21.07;54.32
50592;BME280;36548;50.506;30.834;2023-05-24T05:11:45;99833.37;;;21.04;54.15
50592;BME280;36548;50.506;30.834;2023-05-24T05:13:02;99827.66;;;21.22;53.94
50592;BME280;36548;50.506;30.834;2023-05-24T05:14:12;99824.97;;;21.14;54.08
50592;BME280;36548;50.506;30.834;2023-05-24T05:15:22;99827.84;;;21.20;54.03
50592;BME280;36548;50.506;30.834;2023-05-24T05:16:38;99823.45;;;21.42;53.88
50592;BME280;36548;50.506;30.834;2023-05-24T05:17:49;99827.57;;;21.38;53.61
50592;BME280;36548;50.506;30.834;2023-05-24T05:19:04;99809.91;;;21.57;53.44
50592;BME280;36548;50.506;30.834;2023-05-24T05:20:14;99829.55;;;21.53;53.20
50592;BME280;36548;50.506;30.834;2023-05-24T05:21:30;99821.61;;;21.66;53.14
50592;BME280;36548;50.506;30.834;2023-05-24T05:22:47;99827.13;;;21.58;52.97
50592;BME280;36548;50.506;30.834;2023-05-24T05:24:02;99820.53;;;21.75;52.74
50592;BME280;36548;50.506;30.834;2023-05-24T05:25:11;99832.66;;;21.73;52.62
50592;BME280;36548;50.506;30.834;2023-05-24T05:26:27;99818.44;;;22.01;52.88
50592;BME280;36548;50.506;30.834;2023-05-24T05:27:36;99821.36;;;21.99;52.22
50592;BME280;36548;50.506;30.834;2023-05-24T05:29:10;99821.22;;;22.16;51.83
50592;BME280;36548;50.506;30.834;2023-05-24T05:30:19;99819.39;;;22.08;51.97
50592;BME280;36548;50.506;30.834;2023-05-24T05:31:34;99815.83;;;22.22;51.84
50592;BME280;36548;50.506;30.834;2023-05-24T05:32:44;99821.30;;;22.22;51.75
50592;BME280;36548;50.506;30.834;2023-05-24T05:34:00;99823.91;;;22.39;51.40
50592;BME280;36548;50.506;30.834;2023-05-24T05:35:09;99825.01;;;22.29;51.28
50592;BME280;36548;50.506;30.834;2023-05-24T05:36:26;99819.95;;;22.41;51.12
50592;BME280;36548;50.506;30.834;2023-05-24T05:37:35;99832.84;;;22.33;51.29
50592;BME280;36548;50.506;30.834;2023-05-24T05:38:50;99829.48;;;22.45;51.14
50592;BME280;36548;50.506;30.834;2023-05-24T05:39:59;99835.03;;;22.37;51.10
50592;BME280;36548;50.506;30.834;2023-05-24T05:41:14;99835.05;;;22.52;51.10
50592;BME280;36548;50.506;30.834;2023-05-24T05:42:24;99841.09;;;22.47;51.11
50592;BME280;36548;50.506;30.834;2023-05-24T05:43:34;99843.91;;;22.54;50.92
50592;BME280;36548;50.506;30.834;2023-05-24T05:44:44;99838.16;;;22.64;50.78
50592;BME280;36548;50.506;30.834;2023-05-24T05:45:55;99846.38;;;22.79;50.49
50592;BME280;36548;50.506;30.834;2023-05-24T05:47:11;99847.41;;;23.08;49.79
50592;BME280;36548;50.506;30.834;2023-05-24T05:48:21;99848.92;;;23.10;49.44
50592;BME280;36548;50.506;30.834;2023-05-24T05:49:37;99843.70;;;23.30;49.20
50592;BME280;36548;50.506;30.834;2023-05-24T05:50:47;99848.54;;;23.28;48.87
50592;BME280;36548;50.506;30.834;2023-05-24T05:51:56;99856.45;;;23.38;48.97
50592;BME280;36548;50.506;30.834;2023-05-24T05:53:11;99841.80;;;23.68;48.79
50592;BME280;36548;50.506;30.834;2023-05-24T05:54:20;99855.78;;;23.73;48.38
50592;BME280;36548;50.506;30.834;2023-05-24T05:55:36;99848.31;;;24.03;48.09
50592;BME280;36548;50.506;30.834;2023-05-24T05:56:45;99847.10;;;24.12;47.67
50592;BME280;36548;50.506;30.834;2023-05-24T05:57:56;99845.31;;;24.26;47.08
50592;BME280;36548;50.506;30.834;2023-05-24T05:59:11;99846.53;;;24.45;46.24
50592;BME280;36548;50.506;30.834;2023-05-24T06:00:22;99851.55;;;24.42;46.39
50592;BME280;36548;50.506;30.834;2023-05-24T06:01:31;99847.36;;;24.46;46.36
50592;BME280;36548;50.506;30.834;2023-05-24T06:02:41;99851.86;;;24.54;46.31
50592;BME280;36548;50.506;30.834;2023-05-24T06:03:56;99849.45;;;24.65;45.92
50592;BME280;36548;50.506;30.834;2023-05-24T06:05:06;99855.52;;;24.61;45.96
50592;BME280;36548;50.506;30.834;2023-05-24T06:06:17;99853.23;;;24.64;45.71
50592;BME280;36548;50.506;30.834;2023-05-24T06:07:33;99843.61;;;24.82;45.79
50592;BME280;36548;50.506;30.834;2023-05-24T06:08:43;99857.55;;;24.80;45.90
50592;BME280;36548;50.506;30.834;2023-05-24T06:09:59;99846.07;;;25.05;45.43
50592;BME280;36548;50.506;30.834;2023-05-24T06:11:08;99846.94;;;25.06;45.95
50592;BME280;36548;50.506;30.834;2023-05-24T06:12:24;99846.02;;;25.40;45.74
50592;BME280;36548;50.506;30.834;2023-05-24T06:13:33;99852.17;;;25.42;44.75
50592;BME280;36548;50.506;30.834;2023-05-24T06:15:17;99846.95;;;25.67;44.39
50592;BME280;36548;50.506;30.834;2023-05-24T06:16:28;99844.44;;;25.73;44.41
50592;BME280;36548;50.506;30.834;2023-05-24T06:17:38;99847.41;;;25.91;43.88
50592;BME280;36548;50.506;30.834;2023-05-24T06:18:56;99833.30;;;26.14;42.69
50592;BME280;36548;50.506;30.834;2023-05-24T06:20:08;99841.11;;;26.11;42.85
50592;BME280;36548;50.506;30.834;2023-05-24T06:21:25;99839.20;;;26.31;41.86
50592;BME280;36548;50.506;30.834;2023-05-24T06:22:35;99839.42;;;26.30;42.33
50592;BME280;36548;50.506;30.834;2023-05-24T06:23:46;99844.89;;;26.50;42.13
50592;BME280;36548;50.506;30.834;2023-05-24T06:25:02;99840.87;;;26.79;40.89
50592;BME280;36548;50.506;30.834;2023-05-24T06:26:12;99840.87;;;26.79;40.71
50592;BME280;36548;50.506;30.834;2023-05-24T06:27:27;99841.84;;;27.05;39.87
50592;BME280;36548;50.506;30.834;2023-05-24T06:28:37;99848.45;;;26.97;39.45
50592;BME280;36548;50.506;30.834;2023-05-24T06:30:13;99835.25;;;27.13;39.24
50592;BME280;36548;50.506;30.834;2023-05-24T06:31:23;99842.67;;;27.05;38.99
50592;BME280;36548;50.506;30.834;2023-05-24T06:32:57;99843.86;;;27.30;38.30
50592;BME280;36548;50.506;30.834;2023-05-24T06:34:07;99847.23;;;27.32;38.97
50592;BME280;36548;50.506;30.834;2023-05-24T06:35:17;99840.00;;;27.44;38.53
50592;BME280;36548;50.506;30.834;2023-05-24T06:36:32;99839.67;;;27.66;38.34
50592;BME280;36548;50.506;30.834;2023-05-24T06:37:43;99846.50;;;27.56;38.36
50592;BME280;36548;50.506;30.834;2023-05-24T06:38:53;99836.76;;;27.54;37.80
50592;BME280;36548;50.506;30.834;2023-05-24T06:40:09;99837.59;;;27.61;37.75
50592;BME280;36548;50.506;30.834;2023-05-24T06:41:19;99837.88;;;27.46;37.50